Time;durP1;ratioP1;P1;durP2;ratioP2;P2;SDS_P1;SDS_P2;PMS_P1;PMS_P2;Temp;Humidity;BMP_temperature;BMP_pressure;BME280_temperature;BME280_humidity;BME280_pressure;Samples;Min_cycle;Max_cycle;Signal;HPM_P1;HPM_P2
2023/04/25 00:00:49;;;;;;;96.80;17.75;;;;;;;;;;5003165;28;20045;-61
2023/04/25 00:03:18;;;;;;;102.50;17.58;;;;;;;;;;4999446;28;20049;-61
2023/04/25 00:05:45;;;;;;;93.97;16.38;;;;;;;;;;4990070;28;20467;-61
2023/04/25 00:08:12;;;;;;;86.18;16.25;;;;;;;;;;5001718;28;20504;-63
2023/04/25 00:10:38;;;;;;;128.73;19.48;;;;;;;;;;4999011;28;20567;-61
2023/04/25 00:13:06;;;;;;;67.60;15.70;;;;;;;;;;4997644;28;20058;-60
2023/04/25 00:15:32;;;;;;;90.53;16.63;;;;;;;;;;4988440;28;20053;-62
2023/04/25 00:17:59;;;;;;;72.60;15.80;;;;;;;;;;4982689;28;20045;-60
2023/04/25 00:20:25;;;;;;;95.03;16.63;;;;;;;;;;5000276;28;20126;-60
2023/04/25 00:22:53;;;;;;;59.20;14.80;;;;;;;;;;5001838;28;20045;-61
2023/04/25 00:25:19;;;;;;;98.90;17.83;;;;;;;;;;4988736;28;20046;-60
2023/04/25 00:27:46;;;;;;;91.88;17.35;;;;;;;;;;5002408;28;20157;-61
2023/04/25 00:30:13;;;;;;;123.07;19.40;;;;;;;;;;5000321;28;20030;-61
2023/04/25 00:32:40;;;;;;;161.93;22.25;;;;;;;;;;4990489;28;20049;-59
2023/04/25 00:35:06;;;;;;;93.65;17.98;;;;;;;;;;4980013;28;20057;-60
2023/04/25 00:37:33;;;;;;;86.05;17.80;;;;;;;;;;4989200;28;20057;-61
2023/04/25 00:40:00;;;;;;;109.13;18.73;;;;;;;;;;4982850;28;20037;-56
2023/04/25 00:42:26;;;;;;;89.22;17.88;;;;;;;;;;4988772;28;20050;-61
2023/04/25 00:44:53;;;;;;;68.50;17.40;;;;;;;;;;4998571;28;20635;-60
2023/04/25 00:47:20;;;;;;;109.30;19.83;;;;;;;;;;4989704;28;20081;-60
2023/04/25 00:49:47;;;;;;;92.68;19.55;;;;;;;;;;4996839;28;20060;-60
2023/04/25 00:52:13;;;;;;;114.85;20.77;;;;;;;;;;4980784;28;20443;-58
2023/04/25 00:54:40;;;;;;;106.82;19.10;;;;;;;;;;4989227;28;20140;-56
2023/04/25 00:57:07;;;;;;;86.40;17.73;;;;;;;;;;4982169;28;20045;-61
2023/04/25 00:59:33;;;;;;;127.22;21.15;;;;;;;;;;4998249;28;20122;-61
2023/04/25 01:02:00;;;;;;;94.97;19.77;;;;;;;;;;4981106;28;20423;-59
2023/04/25 01:04:27;;;;;;;65.45;18.20;;;;;;;;;;4999328;28;20050;-61
2023/04/25 01:06:54;;;;;;;81.13;18.38;;;;;;;;;;4987808;28;20045;-60
2023/04/25 01:09:21;;;;;;;103.20;19.67;;;;;;;;;;4987586;28;20046;-61
2023/04/25 01:11:48;;;;;;;112.18;20.33;;;;;;;;;;5002184;28;20031;-60
2023/04/25 01:14:15;;;;;;;79.03;18.70;;;;;;;;;;5000729;28;20480;-62
2023/04/25 01:16:42;;;;;;;110.47;20.13;;;;;;;;;;4993584;28;20066;-60
2023/04/25 01:19:12;;;;;;;82.78;17.70;;;;;;;;;;5000883;28;20034;-59
2023/04/25 01:21:39;;;;;;;111.82;19.67;;;;;;;;;;5004232;28;20046;-61
2023/04/25 01:24:06;;;;;;;125.82;21.55;;;;;;;;;;4987990;28;20380;-58
2023/04/25 01:26:33;;;;;;;91.05;20.48;;;;;;;;;;4991507;28;20077;-61
2023/04/25 01:29:00;;;;;;;91.25;20.63;;;;;;;;;;5000704;28;20046;-62
2023/04/25 01:31:27;;;;;;;109.78;21.40;;;;;;;;;;4984513;28;20042;-60
2023/04/25 01:33:54;;;;;;;74.00;18.95;;;;;;;;;;4982192;28;20062;-57
2023/04/25 01:36:21;;;;;;;99.95;20.15;;;;;;;;;;5002988;28;20424;-57
2023/04/25 01:38:48;;;;;;;122.97;22.65;;;;;;;;;;4992924;28;20124;-61
2023/04/25 01:41:14;;;;;;;91.68;19.13;;;;;;;;;;4992069;28;20935;-61
2023/04/25 01:43:41;;;;;;;94.78;20.58;;;;;;;;;;4993122;28;20057;-61
2023/04/25 01:46:08;;;;;;;86.65;20.83;;;;;;;;;;5001057;28;20046;-62
2023/04/25 01:48:34;;;;;;;91.90;20.10;;;;;;;;;;4999029;28;20104;-62
2023/04/25 01:51:01;;;;;;;111.53;22.02;;;;;;;;;;4984872;28;20045;-60
2023/04/25 01:53:28;;;;;;;98.63;20.52;;;;;;;;;;4993391;28;20502;-61
2023/04/25 01:55:55;;;;;;;91.57;21.25;;;;;;;;;;5004013;28;20077;-59
2023/04/25 01:58:24;;;;;;;72.13;20.30;;;;;;;;;;4991746;28;20042;-59
2023/04/25 02:01:00;;;;;;;349.30;37.95;;;;;;;;;;5028089;23;20514;-64
2023/04/25 02:03:33;;;;;;;94.05;21.52;;;;;;;;;;4965232;28;20047;-60
2023/04/25 02:06:01;;;;;;;116.88;21.30;;;;;;;;;;4966654;28;20142;-64
2023/04/25 02:08:30;;;;;;;109.57;21.67;;;;;;;;;;4970701;28;20074;-62
2023/04/25 02:10:56;;;;;;;87.80;21.33;;;;;;;;;;4954216;28;20047;-61
2023/04/25 02:13:29;;;;;;;94.43;21.47;;;;;;;;;;4953963;28;20110;-62
2023/04/25 02:16:02;;;;;;;67.68;22.17;;;;;;;;;;4971827;28;20054;-63
2023/04/25 02:18:31;;;;;;;96.93;25.33;;;;;;;;;;4969860;28;20149;-63
2023/04/25 02:20:59;;;;;;;139.00;28.25;;;;;;;;;;4969499;28;20158;-62
2023/04/25 02:23:25;;;;;;;62.75;23.35;;;;;;;;;;4970888;28;20481;-63
2023/04/25 02:25:52;;;;;;;87.22;25.95;;;;;;;;;;4971526;28;20039;-61
2023/04/25 02:28:19;;;;;;;120.50;28.05;;;;;;;;;;4971275;28;20070;-63
2023/04/25 02:30:45;;;;;;;93.88;26.80;;;;;;;;;;4954401;28;20109;-62
2023/04/25 02:33:12;;;;;;;92.97;26.25;;;;;;;;;;4971091;28;20389;-59
2023/04/25 02:35:38;;;;;;;156.27;31.92;;;;;;;;;;4970974;28;20149;-64
2023/04/25 02:38:05;;;;;;;70.60;25.58;;;;;;;;;;4955907;28;20051;-63
2023/04/25 02:40:32;;;;;;;107.57;27.85;;;;;;;;;;4953896;28;20073;-63
2023/04/25 02:42:58;;;;;;;97.10;27.65;;;;;;;;;;4969271;28;20078;-64
2023/04/25 02:45:25;;;;;;;61.75;25.15;;;;;;;;;;4969849;28;20133;-59
2023/04/25 02:47:52;;;;;;;102.03;27.85;;;;;;;;;;4953714;28;20456;-58
2023/04/25 02:50:19;;;;;;;127.05;29.50;;;;;;;;;;4971739;28;20145;-62
2023/04/25 02:52:45;;;;;;;84.53;25.23;;;;;;;;;;4970991;28;20109;-62
2023/04/25 02:55:16;;;;;;;96.28;25.75;;;;;;;;;;4953332;28;20050;-63
2023/04/25 02:57:44;;;;;;;126.53;26.95;;;;;;;;;;4969505;28;20054;-61
2023/04/25 03:00:14;;;;;;;114.35;26.92;;;;;;;;;;4953790;28;20858;-61
2023/04/25 03:02:41;;;;;;;133.57;27.95;;;;;;;;;;4970146;28;20508;-62
2023/04/25 03:05:08;;;;;;;132.55;29.42;;;;;;;;;;4953681;28;20511;-63
2023/04/25 03:07:36;;;;;;;93.55;26.00;;;;;;;;;;4965062;28;20074;-59
2023/04/25 03:10:02;;;;;;;90.43;25.40;;;;;;;;;;4969554;28;20117;-62
2023/04/25 03:12:31;;;;;;;129.10;27.80;;;;;;;;;;4968829;28;20070;-63
2023/04/25 03:14:58;;;;;;;100.97;25.17;;;;;;;;;;4971019;28;20045;-61
2023/04/25 03:17:24;;;;;;;73.07;22.77;;;;;;;;;;4954271;28;20532;-59
2023/04/25 03:19:51;;;;;;;129.45;26.33;;;;;;;;;;4969081;28;20050;-55
2023/04/25 03:22:17;;;;;;;78.45;23.05;;;;;;;;;;4953209;28;20094;-62
2023/04/25 03:24:44;;;;;;;114.88;25.13;;;;;;;;;;4969417;28;20051;-58
2023/04/25 03:27:11;;;;;;;96.93;23.75;;;;;;;;;;4970043;28;20109;-59
2023/04/25 03:29:37;;;;;;;155.52;26.35;;;;;;;;;;4970483;28;20046;-63
2023/04/25 03:32:04;;;;;;;116.35;23.25;;;;;;;;;;4968990;28;20058;-62
2023/04/25 03:34:31;;;;;;;136.05;25.10;;;;;;;;;;4968633;28;20038;-61
2023/04/25 03:36:57;;;;;;;60.92;21.83;;;;;;;;;;4953261;28;20043;-61
2023/04/25 03:39:24;;;;;;;78.78;21.30;;;;;;;;;;4968765;28;20489;-61
2023/04/25 03:41:52;;;;;;;136.63;25.75;;;;;;;;;;4952631;28;20641;-59
2023/04/25 03:44:19;;;;;;;71.55;21.35;;;;;;;;;;4970190;28;20507;-62
2023/04/25 03:46:46;;;;;;;80.07;21.02;;;;;;;;;;4959791;28;20050;-60
2023/04/25 03:49:13;;;;;;;102.57;22.13;;;;;;;;;;4952134;28;20121;-62
2023/04/25 03:51:56;;;;;;;;;;;;;;;;;;4966925;28;20035;-60
2023/04/25 03:54:23;;;;;;;85.65;20.10;;;;;;;;;;4968323;28;19922;-61
2023/04/25 03:56:55;;;;;;;77.63;18.70;;;;;;;;;;4969230;28;20050;-58
2023/04/25 03:59:25;;;;;;;142.52;22.30;;;;;;;;;;4968640;28;20054;-62
2023/04/25 04:01:52;;;;;;;118.75;21.63;;;;;;;;;;4969180;28;20066;-61
2023/04/25 04:04:19;;;;;;;68.35;18.70;;;;;;;;;;4968441;28;20047;-63
2023/04/25 04:06:46;;;;;;;90.28;19.67;;;;;;;;;;4950081;28;20594;-61
2023/04/25 04:09:19;;;;;;;130.60;22.17;;;;;;;;;;4956002;28;20081;-63
2023/04/25 04:11:46;;;;;;;85.38;17.63;;;;;;;;;;4952107;28;21215;-62
2023/04/25 04:14:13;;;;;;;83.65;16.80;;;;;;;;;;4953282;28;20077;-64
2023/04/25 04:16:43;;;;;;;129.82;20.45;;;;;;;;;;4967627;28;20149;-61
2023/04/25 04:19:10;;;;;;;105.95;16.55;;;;;;;;;;4951909;28;20058;-63
2023/04/25 04:21:39;;;;;;;105.90;17.85;;;;;;;;;;4968035;28;20063;-62
2023/04/25 04:24:06;;;;;;;114.47;17.77;;;;;;;;;;4963108;28;20058;-59
2023/04/25 04:26:46;;;;;;;101.28;17.35;;;;;;;;;;4968057;28;20066;-60
2023/04/25 04:29:32;;;;;;;267.10;27.98;;;;;;;;;;4951011;28;20046;-62
2023/04/25 04:32:04;;;;;;;85.05;15.45;;;;;;;;;;4968495;28;20404;-63
2023/04/25 04:34:33;;;;;;;103.18;17.48;;;;;;;;;;4967618;28;20552;-60
2023/04/25 04:37:00;;;;;;;45.03;12.88;;;;;;;;;;4967685;28;20054;-61
2023/04/25 04:39:27;;;;;;;54.55;13.75;;;;;;;;;;4968101;28;20047;-64
2023/04/25 04:42:03;;;;;;;81.10;15.50;;;;;;;;;;4965132;28;20404;-65
2023/04/25 04:44:47;;;;;;;81.82;15.63;;;;;;;;;;4967980;28;20065;-65
2023/04/25 04:47:25;;;;;;;39.92;12.07;;;;;;;;;;4968682;28;20042;-64
2023/04/25 04:50:12;;;;;;;88.53;15.15;;;;;;;;;;4970133;28;20062;-65
2023/04/25 04:53:02;;;;;;;74.88;14.80;;;;;;;;;;4963432;28;20059;-65
2023/04/25 04:55:47;;;;;;;64.15;13.35;;;;;;;;;;4968862;28;20054;-65
2023/04/25 04:58:32;;;;;;;76.25;14.15;;;;;;;;;;4966966;28;20125;-64
2023/04/25 05:01:10;;;;;;;222.43;25.23;;;;;;;;;;4967399;28;20051;-65
2023/04/25 05:04:09;;;;;;;88.55;15.20;;;;;;;;;;4952060;28;20051;-64
2023/04/25 05:07:05;;;;;;;129.55;17.20;;;;;;;;;;4908286;29;20122;-65
2023/04/25 05:10:01;;;;;;;52.38;12.65;;;;;;;;;;4861842;29;20053;-65
2023/04/25 05:12:46;;;;;;;193.15;21.33;;;;;;;;;;4860123;29;20069;-65
2023/04/25 05:15:42;;;;;;;121.90;16.88;;;;;;;;;;4844153;29;20057;-65
2023/04/25 05:18:27;;;;;;;275.52;26.65;;;;;;;;;;4855517;29;20061;-65
2023/04/25 05:21:05;;;;;;;74.20;14.75;;;;;;;;;;4847964;29;20150;-65
2023/04/25 05:23:47;;;;;;;94.03;15.75;;;;;;;;;;4850525;29;20492;-65
2023/04/25 05:26:32;;;;;;;88.78;14.70;;;;;;;;;;4861191;29;20084;-64
2023/04/25 05:29:31;;;;;;;63.25;12.90;;;;;;;;;;4844147;29;20465;-64
2023/04/25 05:32:14;;;;;;;88.13;15.02;;;;;;;;;;4827538;29;20049;-67
2023/04/25 05:34:41;;;;;;;83.78;14.13;;;;;;;;;;4812896;29;20064;-64
2023/04/25 05:37:17;;;;;;;90.78;15.18;;;;;;;;;;4832673;29;20065;-64
2023/04/25 05:39:53;;;;;;;95.70;17.33;;;;;;;;;;4843433;29;20504;-64
2023/04/25 05:42:35;;;;;;;78.05;14.20;;;;;;;;;;4830609;29;20057;-65
2023/04/25 05:45:22;;;;;;;56.05;13.35;;;;;;;;;;4858682;29;20053;-64
2023/04/25 05:47:56;;;;;;;77.45;14.35;;;;;;;;;;4887831;29;20045;-64
2023/04/25 05:50:35;;;;;;;88.85;15.55;;;;;;;;;;4873970;29;20100;-64
2023/04/25 05:53:20;;;;;;;108.25;17.13;;;;;;;;;;4890212;29;20140;-65
2023/04/25 05:55:52;;;;;;;78.70;13.23;;;;;;;;;;4890816;29;20090;-64
2023/04/25 05:58:24;;;;;;;51.08;12.57;;;;;;;;;;4873933;29;20052;-66
2023/04/25 06:00:52;;;;;;;115.32;16.38;;;;;;;;;;4875505;29;20051;-65
2023/04/25 06:03:19;;;;;;;89.82;14.75;;;;;;;;;;4876385;29;20092;-64
2023/04/25 06:05:47;;;;;;;105.95;15.40;;;;;;;;;;4933929;28;20065;-66
2023/04/25 06:08:14;;;;;;;94.25;14.82;;;;;;;;;;4955489;28;20054;-64
2023/04/25 06:10:40;;;;;;;65.28;12.90;;;;;;;;;;4971602;28;20054;-64
2023/04/25 06:13:07;;;;;;;86.00;13.82;;;;;;;;;;4970415;28;20583;-64
2023/04/25 06:15:35;;;;;;;101.10;14.45;;;;;;;;;;4953988;28;20062;-65
2023/04/25 06:18:02;;;;;;;46.63;12.45;;;;;;;;;;4954089;28;20447;-64
2023/04/25 06:20:29;;;;;;;53.15;12.35;;;;;;;;;;4972164;28;20515;-67
2023/04/25 06:22:57;;;;;;;86.43;14.57;;;;;;;;;;4951327;28;20047;-65
2023/04/25 06:25:41;;;;;;;87.32;14.40;;;;;;;;;;4968688;28;20047;-65
2023/04/25 06:28:08;;;;;;;107.93;14.85;;;;;;;;;;4949889;28;20569;-65
2023/04/25 06:30:34;;;;;;;57.97;11.60;;;;;;;;;;4950592;28;20051;-65
2023/04/25 06:33:06;;;;;;;68.95;12.30;;;;;;;;;;4950610;28;20046;-65
2023/04/25 06:35:32;;;;;;;126.95;14.68;;;;;;;;;;4954209;28;20093;-64
2023/04/25 06:37:59;;;;;;;55.83;10.20;;;;;;;;;;4970885;28;20043;-64
2023/04/25 06:40:26;;;;;;;67.55;11.02;;;;;;;;;;4970093;28;20061;-65
2023/04/25 06:42:53;;;;;;;101.78;13.05;;;;;;;;;;4969621;28;20043;-65
2023/04/25 06:45:51;;;;;;;72.03;9.63;;;;;;;;;;4910845;29;20060;-64
2023/04/25 06:48:20;;;;;;;134.70;11.75;;;;;;;;;;4911238;29;20105;-64
2023/04/25 06:50:46;;;;;;;122.32;12.55;;;;;;;;;;4910838;29;20048;-66
2023/04/25 06:53:13;;;;;;;83.03;9.85;;;;;;;;;;4896318;29;20736;-65
2023/04/25 06:55:43;;;;;;;69.45;8.93;;;;;;;;;;4910742;29;20094;-64
2023/04/25 06:58:23;;;;;;;184.98;14.63;;;;;;;;;;4907367;29;20131;-65
2023/04/25 07:01:07;;;;;;;84.88;11.25;;;;;;;;;;4910480;29;20067;-65
2023/04/25 07:03:34;;;;;;;77.13;10.23;;;;;;;;;;4910328;29;20086;-65
2023/04/25 07:06:06;;;;;;;106.68;12.98;;;;;;;;;;4914135;29;20492;-65
2023/04/25 07:08:32;;;;;;;61.42;10.95;;;;;;;;;;4914267;29;20047;-65
2023/04/25 07:10:59;;;;;;;58.42;10.52;;;;;;;;;;4929914;29;20050;-66
2023/04/25 07:13:26;;;;;;;72.82;12.45;;;;;;;;;;4929092;29;20590;-63
2023/04/25 07:15:52;;;;;;;62.90;11.88;;;;;;;;;;4925576;29;20071;-64
2023/04/25 07:18:22;;;;;;;67.28;12.40;;;;;;;;;;4910088;29;20127;-64
2023/04/25 07:20:49;;;;;;;115.43;15.82;;;;;;;;;;4920790;28;20083;-65
2023/04/25 07:23:17;;;;;;;75.88;12.82;;;;;;;;;;4954050;28;20047;-66
2023/04/25 07:25:43;;;;;;;88.35;14.30;;;;;;;;;;4969035;28;20138;-65
2023/04/25 07:28:11;;;;;;;90.82;14.30;;;;;;;;;;4968932;28;20134;-65
2023/04/25 07:30:38;;;;;;;74.95;14.13;;;;;;;;;;4970447;28;20067;-64
2023/04/25 07:33:04;;;;;;;71.85;13.00;;;;;;;;;;4968784;28;20508;-64
2023/04/25 07:35:31;;;;;;;69.30;13.18;;;;;;;;;;4969470;28;20114;-65
2023/04/25 07:37:58;;;;;;;58.95;11.52;;;;;;;;;;4969400;28;20055;-64
2023/04/25 07:40:25;;;;;;;45.80;11.13;;;;;;;;;;4968925;28;20050;-64
2023/04/25 07:42:56;;;;;;;55.63;12.70;;;;;;;;;;4952724;28;20057;-65
2023/04/25 07:45:30;;;;;;;76.65;12.35;;;;;;;;;;4968999;28;20051;-65
2023/04/25 07:47:57;;;;;;;91.13;14.45;;;;;;;;;;4968750;28;20073;-65
2023/04/25 07:50:24;;;;;;;46.08;10.65;;;;;;;;;;4969922;28;20113;-64
2023/04/25 07:52:52;;;;;;;69.25;12.50;;;;;;;;;;4968215;28;20082;-64
2023/04/25 07:55:30;;;;;;;83.20;13.27;;;;;;;;;;4952444;28;20050;-65
2023/04/25 07:58:07;;;;;;;71.22;12.00;;;;;;;;;;4968358;28;20069;-65
2023/04/25 08:00:36;;;;;;;80.32;13.38;;;;;;;;;;4952031;28;20059;-65
2023/04/25 08:03:28;;;;;;;36.55;9.07;;;;;;;;;;4967133;28;20086;-65
2023/04/25 08:05:58;;;;;;;104.97;14.23;;;;;;;;;;4964623;28;20090;-64
2023/04/25 08:08:28;;;;;;;52.83;11.55;;;;;;;;;;4969858;28;20093;-65
2023/04/25 08:10:55;;;;;;;43.97;10.65;;;;;;;;;;4952672;28;20055;-65
2023/04/25 08:13:22;;;;;;;95.40;13.85;;;;;;;;;;4961226;28;20039;-64
2023/04/25 08:15:48;;;;;;;66.72;11.45;;;;;;;;;;4947932;28;20050;-66
2023/04/25 08:18:15;;;;;;;82.78;13.55;;;;;;;;;;4947671;28;20047;-64
2023/04/25 08:20:44;;;;;;;143.70;18.15;;;;;;;;;;4966003;28;20082;-65
2023/04/25 08:23:13;;;;;;;87.72;14.93;;;;;;;;;;4967707;28;20070;-65
2023/04/25 08:25:50;;;;;;;94.68;14.90;;;;;;;;;;4967622;28;20101;-65
2023/04/25 08:28:20;;;;;;;51.75;11.38;;;;;;;;;;4951933;28;20462;-64
2023/04/25 08:30:47;;;;;;;113.93;14.50;;;;;;;;;;4951508;28;20072;-65
2023/04/25 08:33:16;;;;;;;128.23;15.48;;;;;;;;;;4959956;28;20145;-64
2023/04/25 08:36:03;;;;;;;62.15;11.07;;;;;;;;;;4966297;28;20064;-64
2023/04/25 08:38:31;;;;;;;101.03;13.45;;;;;;;;;;4952062;28;20124;-65
2023/04/25 08:40:59;;;;;;;48.40;9.50;;;;;;;;;;4952361;28;20404;-65
2023/04/25 08:43:28;;;;;;;54.42;9.75;;;;;;;;;;4951933;28;20042;-64
2023/04/25 08:45:58;;;;;;;88.28;11.82;;;;;;;;;;4951470;28;20070;-64
2023/04/25 08:48:40;;;;;;;74.88;10.13;;;;;;;;;;4965302;28;20182;-64
2023/04/25 08:51:07;;;;;;;112.20;12.55;;;;;;;;;;4968897;28;20440;-64
2023/04/25 08:53:42;;;;;;;94.55;11.60;;;;;;;;;;4952126;28;20043;-65
2023/04/25 08:56:12;;;;;;;57.30;8.70;;;;;;;;;;4968467;28;20081;-65
2023/04/25 08:58:40;;;;;;;75.60;9.32;;;;;;;;;;4962352;28;20050;-65
2023/04/25 09:01:06;;;;;;;69.53;9.57;;;;;;;;;;4968833;28;20055;-65
2023/04/25 09:03:41;;;;;;;90.70;10.55;;;;;;;;;;4964178;28;20055;-65
2023/04/25 09:06:10;;;;;;;51.10;9.15;;;;;;;;;;4967989;28;20125;-64
2023/04/25 09:08:37;;;;;;;129.52;14.05;;;;;;;;;;4951362;28;20155;-65
2023/04/25 09:11:04;;;;;;;113.65;13.57;;;;;;;;;;4950972;28;20417;-65
2023/04/25 09:13:30;;;;;;;42.20;8.98;;;;;;;;;;4969532;28;20057;-64
2023/04/25 09:16:18;;;;;;;65.03;11.38;;;;;;;;;;4963828;28;20132;-66
2023/04/25 09:18:58;;;;;;;54.28;11.07;;;;;;;;;;4967375;28;20058;-64
2023/04/25 09:21:24;;;;;;;70.05;11.88;;;;;;;;;;4967501;28;20058;-66
2023/04/25 09:23:52;;;;;;;90.30;13.68;;;;;;;;;;4968865;28;20047;-63
2023/04/25 09:26:20;;;;;;;75.53;11.60;;;;;;;;;;4968068;28;20141;-64
2023/04/25 09:28:48;;;;;;;66.90;11.65;;;;;;;;;;4967598;28;20054;-65
2023/04/25 09:31:22;;;;;;;75.97;12.40;;;;;;;;;;4969469;28;20051;-64
2023/04/25 09:33:49;;;;;;;87.10;11.98;;;;;;;;;;4967569;28;20051;-66
2023/04/25 09:36:17;;;;;;;86.05;11.70;;;;;;;;;;4954712;28;20488;-65
2023/04/25 09:39:14;;;;;;;100.20;12.30;;;;;;;;;;4971981;28;20097;-65
2023/04/25 09:41:46;;;;;;;116.68;13.27;;;;;;;;;;4953539;28;20054;-64
2023/04/25 09:44:13;;;;;;;58.40;9.50;;;;;;;;;;4970932;28;20063;-64
2023/04/25 09:46:41;;;;;;;66.53;9.75;;;;;;;;;;4970836;28;20058;-64
2023/04/25 09:49:16;;;;;;;71.57;11.27;;;;;;;;;;4971935;28;20038;-64
2023/04/25 09:52:00;;;;;;;63.95;11.35;;;;;;;;;;4970470;28;20061;-66
2023/04/25 09:54:36;;;;;;;69.80;11.45;;;;;;;;;;4956214;28;20692;-65
2023/04/25 09:57:18;;;;;;;73.00;11.68;;;;;;;;;;4970924;28;20487;-64
2023/04/25 09:59:46;;;;;;;95.28;12.85;;;;;;;;;;4937760;28;20046;-63
2023/04/25 10:02:14;;;;;;;71.47;12.02;;;;;;;;;;4971028;28;20065;-64
2023/04/25 10:04:44;;;;;;;101.90;12.68;;;;;;;;;;4969447;28;20387;-64
2023/04/25 10:07:18;;;;;;;67.03;11.35;;;;;;;;;;4969669;28;20070;-65
2023/04/25 10:09:47;;;;;;;72.57;11.70;;;;;;;;;;4971952;28;20038;-65
2023/04/25 10:12:14;;;;;;;112.97;13.23;;;;;;;;;;4971997;28;20054;-65
2023/04/25 10:14:41;;;;;;;99.00;14.30;;;;;;;;;;4969444;28;20109;-64
2023/04/25 10:17:09;;;;;;;67.93;12.55;;;;;;;;;;4971548;28;20118;-65
2023/04/25 10:19:36;;;;;;;88.90;13.93;;;;;;;;;;4968622;28;20074;-64
2023/04/25 10:22:12;;;;;;;77.70;13.70;;;;;;;;;;4970401;28;20117;-64
2023/04/25 10:24:39;;;;;;;92.15;14.52;;;;;;;;;;4971485;28;20576;-65
2023/04/25 10:27:06;;;;;;;55.35;10.95;;;;;;;;;;4971484;28;20051;-64
2023/04/25 10:29:33;;;;;;;69.47;12.77;;;;;;;;;;4971938;28;20047;-66
2023/04/25 10:32:00;;;;;;;53.03;10.45;;;;;;;;;;4971741;28;20085;-64
2023/04/25 10:34:39;;;;;;;65.05;12.00;;;;;;;;;;4972033;28;20059;-65
2023/04/25 10:37:08;;;;;;;77.80;12.43;;;;;;;;;;4967579;28;20386;-65
2023/04/25 10:39:35;;;;;;;87.18;12.27;;;;;;;;;;4950405;28;20049;-64
2023/04/25 10:42:02;;;;;;;55.65;10.05;;;;;;;;;;4950458;28;20054;-64
2023/04/25 10:44:29;;;;;;;47.13;9.40;;;;;;;;;;4972413;28;20045;-65
2023/04/25 10:46:57;;;;;;;96.28;12.43;;;;;;;;;;4971035;28;20074;-64
2023/04/25 10:49:31;;;;;;;44.35;10.02;;;;;;;;;;4971568;28;20042;-64
2023/04/25 10:52:27;;;;;;;56.00;10.98;;;;;;;;;;4971091;28;20043;-65
2023/04/25 10:54:55;;;;;;;59.20;10.45;;;;;;;;;;4942032;28;20597;-63
2023/04/25 10:57:31;;;;;;;112.05;13.45;;;;;;;;;;4970563;28;20054;-64
2023/04/25 10:59:59;;;;;;;67.25;10.98;;;;;;;;;;4970934;28;20038;-65
2023/04/25 11:02:28;;;;;;;72.15;12.50;;;;;;;;;;4971072;28;20121;-64
2023/04/25 11:04:55;;;;;;;98.57;13.75;;;;;;;;;;4970163;28;20042;-65
2023/04/25 11:07:22;;;;;;;51.45;11.43;;;;;;;;;;4970778;28;20492;-64
2023/04/25 11:09:49;;;;;;;94.88;14.80;;;;;;;;;;4969344;28;20051;-65
2023/04/25 11:12:17;;;;;;;105.32;16.15;;;;;;;;;;4969782;28;20101;-64
2023/04/25 11:14:44;;;;;;;123.65;17.60;;;;;;;;;;4971166;28;20038;-65
2023/04/25 11:17:11;;;;;;;74.00;13.88;;;;;;;;;;4971123;28;20117;-65
2023/04/25 11:19:37;;;;;;;79.18;15.32;;;;;;;;;;4970734;28;20046;-65
2023/04/25 11:22:04;;;;;;;79.07;15.65;;;;;;;;;;4970148;28;20057;-64
2023/04/25 11:24:32;;;;;;;70.40;14.02;;;;;;;;;;4970637;28;20544;-64
2023/04/25 11:26:59;;;;;;;75.65;15.82;;;;;;;;;;4953023;28;20046;-65
2023/04/25 11:29:26;;;;;;;55.65;13.00;;;;;;;;;;4971145;28;20419;-65
2023/04/25 11:31:55;;;;;;;65.72;13.40;;;;;;;;;;4969891;28;20412;-64
2023/04/25 11:34:22;;;;;;;67.70;14.10;;;;;;;;;;4970469;28;20045;-64
2023/04/25 11:36:49;;;;;;;69.20;13.10;;;;;;;;;;4970264;28;20141;-65
2023/04/25 11:39:15;;;;;;;75.78;12.75;;;;;;;;;;4970177;28;20039;-66
2023/04/25 11:41:42;;;;;;;116.10;15.75;;;;;;;;;;4970345;28;20049;-65
2023/04/25 11:44:11;;;;;;;70.88;13.10;;;;;;;;;;4970809;28;20051;-64
2023/04/25 11:46:38;;;;;;;101.38;13.63;;;;;;;;;;4969526;28;20043;-64
2023/04/25 11:49:04;;;;;;;77.82;12.65;;;;;;;;;;4969977;28;20049;-65
2023/04/25 11:51:37;;;;;;;45.45;9.93;;;;;;;;;;4970044;28;20058;-65
2023/04/25 11:54:04;;;;;;;113.47;13.32;;;;;;;;;;4969130;28;20043;-65
2023/04/25 11:56:32;;;;;;;36.13;8.45;;;;;;;;;;4967202;28;20043;-64
2023/04/25 11:59:00;;;;;;;67.72;9.43;;;;;;;;;;4969134;28;20124;-65
2023/04/25 12:01:28;;;;;;;111.65;12.35;;;;;;;;;;4966919;28;20163;-65
2023/04/25 12:03:58;;;;;;;49.00;8.55;;;;;;;;;;4970184;28;20151;-64
2023/04/25 12:06:28;;;;;;;58.92;8.98;;;;;;;;;;4968092;28;20482;-65
2023/04/25 12:09:01;;;;;;;130.65;12.70;;;;;;;;;;4969492;28;20050;-64
2023/04/25 12:11:29;;;;;;;44.50;7.73;;;;;;;;;;4970584;28;20077;-64
2023/04/25 12:13:56;;;;;;;56.78;7.93;;;;;;;;;;4969726;28;20293;-64
2023/04/25 12:16:22;;;;;;;85.22;9.82;;;;;;;;;;4968752;28;20043;-64
2023/04/25 12:18:51;;;;;;;80.50;9.13;;;;;;;;;;4969246;28;20109;-65
2023/04/25 12:21:20;;;;;;;91.07;10.68;;;;;;;;;;4969754;28;20066;-65
2023/04/25 12:23:46;;;;;;;151.63;14.00;;;;;;;;;;4969063;28;20517;-65
2023/04/25 12:26:13;;;;;;;69.80;8.68;;;;;;;;;;4970370;28;20635;-64
2023/04/25 12:28:39;;;;;;;71.72;8.88;;;;;;;;;;4969134;28;20109;-64
2023/04/25 12:31:06;;;;;;;84.80;9.45;;;;;;;;;;4969258;28;20141;-64
2023/04/25 12:33:36;;;;;;;58.63;7.13;;;;;;;;;;4965702;28;20046;-64
2023/04/25 12:36:08;;;;;;;59.35;7.43;;;;;;;;;;4964915;28;20042;-65
2023/04/25 12:38:36;;;;;;;45.08;6.30;;;;;;;;;;4969831;28;20121;-65
2023/04/25 12:41:03;;;;;;;92.18;9.18;;;;;;;;;;4969311;28;20126;-66
2023/04/25 12:43:29;;;;;;;45.90;6.35;;;;;;;;;;4969267;28;20051;-64
2023/04/25 12:45:56;;;;;;;35.30;6.05;;;;;;;;;;4969450;28;20046;-64
2023/04/25 12:48:23;;;;;;;59.55;7.25;;;;;;;;;;4968564;28;20398;-63
2023/04/25 12:50:51;;;;;;;111.45;10.43;;;;;;;;;;4968709;28;20457;-65
2023/04/25 12:53:19;;;;;;;56.90;7.25;;;;;;;;;;4970303;28;20061;-64
2023/04/25 12:55:46;;;;;;;64.97;7.82;;;;;;;;;;4951439;28;20511;-66
2023/04/25 12:58:13;;;;;;;87.22;9.05;;;;;;;;;;4968881;28;20114;-64
2023/04/25 13:00:40;;;;;;;56.88;7.05;;;;;;;;;;4967706;28;20050;-64
2023/04/25 13:03:06;;;;;;;89.90;9.05;;;;;;;;;;4950155;28;20055;-65
2023/04/25 13:05:33;;;;;;;58.00;6.90;;;;;;;;;;4973925;28;20481;-65
2023/04/25 13:08:00;;;;;;;36.67;5.57;;;;;;;;;;4975834;28;20043;-65
2023/04/25 13:10:26;;;;;;;59.30;7.18;;;;;;;;;;4975058;28;20433;-64
2023/04/25 13:12:53;;;;;;;100.45;10.25;;;;;;;;;;4975289;28;20042;-64
2023/04/25 13:15:19;;;;;;;61.80;7.25;;;;;;;;;;4975458;28;20580;-64
2023/04/25 13:17:46;;;;;;;100.43;9.65;;;;;;;;;;4975173;28;20046;-64
2023/04/25 13:20:14;;;;;;;57.38;6.95;;;;;;;;;;4975787;28;20661;-64
2023/04/25 13:22:42;;;;;;;103.15;9.75;;;;;;;;;;4975436;28;20070;-65
2023/04/25 13:25:08;;;;;;;59.90;6.82;;;;;;;;;;4975360;28;20701;-64
2023/04/25 13:27:36;;;;;;;64.93;6.82;;;;;;;;;;4975327;28;20049;-65
2023/04/25 13:30:07;;;;;;;63.92;6.25;;;;;;;;;;4975007;28;20097;-64
2023/04/25 13:32:35;;;;;;;66.70;7.03;;;;;;;;;;4972294;28;20034;-65
2023/04/25 13:35:02;;;;;;;90.38;8.25;;;;;;;;;;4975140;28;20055;-64
2023/04/25 13:37:33;;;;;;;44.42;5.30;;;;;;;;;;4975412;28;20129;-64
2023/04/25 13:40:05;;;;;;;59.45;5.70;;;;;;;;;;4975058;28;20503;-65
2023/04/25 13:42:32;;;;;;;88.00;8.23;;;;;;;;;;4974346;28;20464;-64
2023/04/25 13:44:58;;;;;;;83.20;7.90;;;;;;;;;;4974813;28;20724;-64
2023/04/25 13:47:25;;;;;;;44.70;5.30;;;;;;;;;;4975967;28;20046;-65
2023/04/25 13:49:51;;;;;;;94.25;8.98;;;;;;;;;;4974917;28;20126;-64
2023/04/25 13:52:18;;;;;;;48.67;5.60;;;;;;;;;;4975106;28;20085;-64
2023/04/25 13:54:47;;;;;;;66.82;7.18;;;;;;;;;;4975055;28;20488;-65
2023/04/25 13:57:13;;;;;;;123.20;10.40;;;;;;;;;;4974530;28;20765;-64
2023/04/25 13:59:40;;;;;;;65.35;7.30;;;;;;;;;;4975178;28;20058;-64
2023/04/25 14:02:07;;;;;;;61.08;7.13;;;;;;;;;;4973474;28;20062;-65
2023/04/25 14:04:33;;;;;;;107.10;10.02;;;;;;;;;;4974807;28;20111;-63
2023/04/25 14:07:02;;;;;;;57.67;6.28;;;;;;;;;;4957628;28;20055;-64
2023/04/25 14:09:28;;;;;;;31.08;4.68;;;;;;;;;;4975332;28;20050;-64
2023/04/25 14:11:55;;;;;;;113.18;10.32;;;;;;;;;;4974369;28;20523;-65
2023/04/25 14:14:22;;;;;;;36.33;5.70;;;;;;;;;;4976123;28;20500;-64
2023/04/25 14:16:50;;;;;;;104.68;9.40;;;;;;;;;;4972051;28;20042;-66
2023/04/25 14:19:17;;;;;;;94.15;8.63;;;;;;;;;;4967838;28;20038;-64
2023/04/25 14:21:47;;;;;;;52.33;6.35;;;;;;;;;;4968213;28;20051;-65
2023/04/25 14:24:13;;;;;;;48.80;5.75;;;;;;;;;;4971935;28;20046;-65
2023/04/25 14:26:40;;;;;;;129.07;10.88;;;;;;;;;;4971911;28;20511;-65
2023/04/25 14:29:08;;;;;;;69.47;6.85;;;;;;;;;;4970946;28;20065;-67
2023/04/25 14:31:35;;;;;;;77.95;7.50;;;;;;;;;;4971409;28;20127;-64